createdAt,value
2018-05-24T00:00:54.803Z,19.80
2018-05-24T00:03:21.112Z,19.80
2018-05-24T00:08:21.176Z,19.80
2018-05-24T00:10:47.479Z,19.80
2018-05-24T00:13:14.501Z,19.80
2018-05-24T00:15:40.850Z,19.80
2018-05-24T00:18:07.184Z,19.80
2018-05-24T00:20:34.242Z,19.70
2018-05-24T00:23:01.275Z,19.80
2018-05-24T00:25:27.581Z,19.70
2018-05-24T00:27:53.843Z,19.70
2018-05-24T00:30:20.888Z,19.70
2018-05-24T00:32:47.167Z,19.70
2018-05-24T00:35:13.517Z,19.70
2018-05-24T00:37:39.845Z,19.60
2018-05-24T00:40:06.161Z,19.60
2018-05-24T00:42:32.484Z,19.50
2018-05-24T00:44:58.785Z,19.60
2018-05-24T00:47:25.842Z,19.50
2018-05-24T00:49:52.137Z,19.50
2018-05-24T00:52:18.471Z,19.50
2018-05-24T00:54:44.828Z,19.40
2018-05-24T00:57:11.052Z,19.40
2018-05-24T00:59:38.099Z,19.50
2018-05-24T01:02:05.175Z,19.50
2018-05-24T01:04:31.437Z,19.40
2018-05-24T01:06:57.881Z,19.50
2018-05-24T01:09:24.204Z,19.50
2018-05-24T01:11:50.558Z,19.40
2018-05-24T01:14:17.660Z,19.40
2018-05-24T01:16:43.999Z,19.40
2018-05-24T01:19:10.296Z,19.50
2018-05-24T01:21:37.377Z,19.40
2018-05-24T01:24:03.742Z,19.40
2018-05-24T01:26:30.132Z,19.40
2018-05-24T01:28:56.490Z,19.40
2018-05-24T01:31:22.824Z,19.40
2018-05-24T01:33:49.144Z,19.30
2018-05-24T01:36:15.435Z,19.30
2018-05-24T01:38:42.519Z,19.20
2018-05-24T01:41:08.840Z,19.20
2018-05-24T01:43:35.143Z,19.20
2018-05-24T01:46:02.208Z,19.10
2018-05-24T01:48:28.515Z,19.00
2018-05-24T01:50:55.522Z,19.00
2018-05-24T01:53:21.785Z,19.00
2018-05-24T01:55:48.910Z,19.00
2018-05-24T01:58:15.188Z,19.00
2018-05-24T02:00:41.435Z,19.00
2018-05-24T02:03:07.698Z,18.90
2018-05-24T02:05:34.003Z,18.90
2018-05-24T02:08:00.305Z,18.80
2018-05-24T02:10:26.609Z,18.90
2018-05-24T02:12:52.926Z,18.80
2018-05-24T02:15:19.213Z,18.80
2018-05-24T02:17:45.553Z,18.80
2018-05-24T02:20:11.819Z,18.70
2018-05-24T02:22:38.138Z,18.70
2018-05-24T02:25:04.424Z,18.60
2018-05-24T02:27:30.762Z,18.60
2018-05-24T02:29:57.082Z,18.60
2018-05-24T02:32:23.598Z,18.60
2018-05-24T02:34:50.620Z,18.40
2018-05-24T02:37:16.890Z,18.40
2018-05-24T02:39:43.244Z,18.40
2018-05-24T02:42:09.589Z,18.40
2018-05-24T02:44:35.910Z,18.40
2018-05-24T02:47:02.232Z,18.40
2018-05-24T02:49:28.508Z,18.40
2018-05-24T02:51:54.814Z,18.40
2018-05-24T02:54:21.161Z,18.30
2018-05-24T02:56:47.438Z,18.30
2018-05-24T02:59:14.536Z,18.40
2018-05-24T03:01:40.930Z,18.40
2018-05-24T03:04:07.157Z,18.40
2018-05-24T03:06:33.446Z,18.40
2018-05-24T03:08:59.784Z,18.40
2018-05-24T03:11:26.070Z,18.30
2018-05-24T03:13:52.383Z,18.40
2018-05-24T03:16:18.704Z,18.30
2018-05-24T03:18:44.998Z,18.30
2018-05-24T03:21:11.271Z,18.30
2018-05-24T03:23:37.576Z,18.20
2018-05-24T03:26:04.649Z,18.10
2018-05-24T03:28:30.968Z,18.10
2018-05-24T03:30:57.265Z,18.20
2018-05-24T03:33:23.680Z,18.10
2018-05-24T03:35:50.025Z,18.10
2018-05-24T03:38:16.304Z,18.30
2018-05-24T03:40:43.358Z,18.30
2018-05-24T03:43:10.672Z,18.30
2018-05-24T03:45:37.997Z,18.30
2018-05-24T03:48:04.340Z,18.30
2018-05-24T03:50:30.628Z,18.30
2018-05-24T03:52:57.950Z,18.20
2018-05-24T03:55:24.232Z,18.20
2018-05-24T03:57:50.492Z,18.30
2018-05-24T04:00:36.087Z,18.30
2018-05-24T04:06:12.128Z,18.40
2018-05-24T04:08:38.456Z,18.40
2018-05-24T04:11:04.796Z,18.50
2018-05-24T04:13:31.121Z,18.50
2018-05-24T04:15:57.409Z,18.40
2018-05-24T04:18:23.658Z,18.40
2018-05-24T04:20:49.972Z,18.40
2018-05-24T04:23:16.328Z,18.40
2018-05-24T04:25:42.580Z,18.30
2018-05-24T04:28:08.872Z,18.50
2018-05-24T04:30:35.954Z,18.70
2018-05-24T04:33:02.215Z,18.60
2018-05-24T04:35:28.505Z,18.70
2018-05-24T04:37:54.797Z,18.70
2018-05-24T04:40:21.827Z,18.80
2018-05-24T04:42:48.162Z,18.80
2018-05-24T04:45:17.515Z,18.80
2018-05-24T04:47:43.775Z,18.90
2018-05-24T04:50:10.281Z,19.00
2018-05-24T04:52:36.612Z,19.00
2018-05-24T04:55:02.944Z,19.10
2018-05-24T04:57:29.223Z,19.00
2018-05-24T04:59:55.531Z,19.00
2018-05-24T05:02:21.836Z,18.90
2018-05-24T05:04:48.172Z,19.00
2018-05-24T05:07:14.498Z,19.20
2018-05-24T05:09:40.851Z,19.10
2018-05-24T05:12:07.147Z,19.20
2018-05-24T05:14:33.468Z,19.30
2018-05-24T05:16:59.755Z,19.30
2018-05-24T05:19:26.115Z,19.50
2018-05-24T05:21:54.437Z,19.80
2018-05-24T05:24:20.764Z,20.10
2018-05-24T05:26:47.080Z,20.10
2018-05-24T05:29:13.420Z,20.10
2018-05-24T05:31:39.627Z,20.00
2018-05-24T05:34:05.913Z,20.30
2018-05-24T05:36:32.237Z,20.30
2018-05-24T05:38:59.171Z,20.50
2018-05-24T05:41:25.463Z,20.60
2018-05-24T05:43:52.550Z,20.60
2018-05-24T05:46:18.836Z,20.60
2018-05-24T05:48:45.122Z,20.70
2018-05-24T05:51:11.378Z,21.10
2018-05-24T05:53:44.642Z,21.30
2018-05-24T05:56:11.014Z,20.80
2018-05-24T05:58:38.096Z,21.40
2018-05-24T06:01:04.412Z,21.30
2018-05-24T06:03:30.774Z,21.40
2018-05-24T06:05:57.065Z,21.00
2018-05-24T06:08:23.464Z,21.40
2018-05-24T06:10:49.793Z,21.40
2018-05-24T06:13:16.086Z,21.80
2018-05-24T06:15:42.408Z,21.50
2018-05-24T06:18:08.705Z,21.40
2018-05-24T06:20:35.000Z,21.30
2018-05-24T06:23:01.368Z,21.40
2018-05-24T06:25:27.687Z,21.50
2018-05-24T06:27:53.954Z,21.90
2018-05-24T06:30:20.323Z,21.90
2018-05-24T06:32:46.680Z,22.10
2018-05-24T06:35:12.998Z,22.30
2018-05-24T06:37:39.322Z,22.40
2018-05-24T06:40:05.634Z,22.20
2018-05-24T06:42:31.921Z,22.10
2018-05-24T06:44:58.985Z,22.30
2018-05-24T06:47:26.220Z,22.40
2018-05-24T06:49:53.375Z,22.70
2018-05-24T06:52:20.472Z,22.60
2018-05-24T06:54:46.764Z,22.50
2018-05-24T06:57:13.037Z,22.80
2018-05-24T06:59:39.326Z,23.10
2018-05-24T07:02:05.619Z,23.20
2018-05-24T07:04:31.932Z,23.70
2018-05-24T07:06:58.261Z,23.90
2018-05-24T07:09:24.650Z,23.50
2018-05-24T07:11:51.730Z,22.60
2018-05-24T07:14:18.032Z,22.60
2018-05-24T07:16:45.053Z,22.70
2018-05-24T07:19:11.370Z,22.70
2018-05-24T07:21:37.696Z,23.20
2018-05-24T07:24:03.976Z,23.50
2018-05-24T07:26:30.375Z,24.00
2018-05-24T07:28:56.678Z,23.90
2018-05-24T07:31:23.002Z,24.10
2018-05-24T07:33:49.327Z,23.70
2018-05-24T07:36:15.643Z,23.80
2018-05-24T07:38:41.999Z,24.30
2018-05-24T07:41:08.383Z,24.70
2018-05-24T07:43:35.494Z,24.70
2018-05-24T07:46:01.805Z,24.70
2018-05-24T07:48:28.238Z,24.60
2018-05-24T07:50:54.573Z,24.50
2018-05-24T07:53:20.882Z,24.50
2018-05-24T07:55:47.219Z,24.30
2018-05-24T07:58:13.539Z,24.70
2018-05-24T08:00:39.874Z,24.80
2018-05-24T08:03:06.321Z,24.90
2018-05-24T08:05:32.674Z,24.90
2018-05-24T08:07:59.056Z,25.00
2018-05-24T08:10:26.092Z,24.90
2018-05-24T08:12:52.346Z,24.90
2018-05-24T08:15:18.669Z,25.10
2018-05-24T08:17:44.997Z,25.10
2018-05-24T08:20:12.065Z,24.20
2018-05-24T08:22:38.393Z,24.20
2018-05-24T08:25:04.683Z,24.30
2018-05-24T08:27:31.038Z,24.50
2018-05-24T08:29:58.056Z,24.80
2018-05-24T08:32:24.351Z,24.80
2018-05-24T08:34:50.657Z,25.20
2018-05-24T08:37:16.994Z,25.10
2018-05-24T08:39:43.271Z,25.60
2018-05-24T08:42:09.614Z,25.30
2018-05-24T08:44:35.936Z,24.80
2018-05-24T08:47:02.365Z,24.70
2018-05-24T08:49:28.740Z,25.40
2018-05-24T08:51:55.016Z,25.40
2018-05-24T08:54:21.326Z,25.60
2018-05-24T08:56:47.673Z,25.70
2018-05-24T08:59:13.987Z,25.70
2018-05-24T09:01:40.338Z,25.00
2018-05-24T09:04:06.629Z,25.10
2018-05-24T09:06:32.996Z,25.20
2018-05-24T09:08:59.391Z,25.50
2018-05-24T09:11:25.621Z,26.00
2018-05-24T09:13:51.921Z,25.70
2018-05-24T09:16:18.247Z,25.60
2018-05-24T09:18:44.584Z,26.00
2018-05-24T09:21:10.957Z,25.80
2018-05-24T09:23:37.286Z,25.60
2018-05-24T09:26:03.581Z,26.10
2018-05-24T09:28:29.933Z,26.50
2018-05-24T09:30:56.997Z,26.90
2018-05-24T09:33:23.275Z,26.80
2018-05-24T09:35:49.600Z,27.50
2018-05-24T09:38:15.912Z,27.50
2018-05-24T09:40:42.231Z,26.90
2018-05-24T09:43:08.857Z,26.90
2018-05-24T09:45:35.157Z,26.90
2018-05-24T09:48:01.457Z,27.00
2018-05-24T09:50:27.754Z,27.30
2018-05-24T09:52:54.047Z,27.20
2018-05-24T09:55:20.398Z,27.10
2018-05-24T09:57:46.797Z,26.90
2018-05-24T10:00:13.126Z,26.90
2018-05-24T10:02:39.439Z,27.30
2018-05-24T10:05:05.727Z,27.50
2018-05-24T10:07:32.796Z,27.40
2018-05-24T10:09:59.098Z,27.40
2018-05-24T10:12:26.174Z,28.50
2018-05-24T10:14:52.491Z,28.50
2018-05-24T10:17:18.818Z,28.60
2018-05-24T10:19:45.870Z,28.80
2018-05-24T10:22:12.160Z,28.80
2018-05-24T10:24:38.452Z,28.90
2018-05-24T10:27:04.763Z,29.00
2018-05-24T10:29:31.112Z,28.60
2018-05-24T10:31:57.432Z,28.70
2018-05-24T10:34:23.743Z,28.30
2018-05-24T10:36:50.775Z,28.50
2018-05-24T10:39:17.046Z,28.50
2018-05-24T10:41:43.338Z,28.60
2018-05-24T10:44:09.625Z,28.50
2018-05-24T10:46:35.907Z,28.90
2018-05-24T10:49:02.929Z,28.60
2018-05-24T10:51:29.968Z,28.70
2018-05-24T10:53:56.277Z,28.70
2018-05-24T10:56:22.597Z,28.70
2018-05-24T10:58:48.926Z,28.90
2018-05-24T11:01:15.209Z,29.00
2018-05-24T11:03:41.738Z,28.80
2018-05-24T11:08:33.853Z,28.90
2018-05-24T11:11:00.127Z,29.00
2018-05-24T11:13:26.451Z,28.40
2018-05-24T11:15:52.754Z,28.70
2018-05-24T11:18:19.040Z,28.90
2018-05-24T11:20:46.055Z,28.50
2018-05-24T11:23:13.141Z,29.00
2018-05-24T11:25:39.423Z,29.00
2018-05-24T11:28:05.722Z,29.30
2018-05-24T11:30:32.031Z,28.90
2018-05-24T11:32:59.089Z,29.20
2018-05-24T11:35:25.378Z,29.20
2018-05-24T11:37:51.680Z,28.90
2018-05-24T11:40:17.962Z,29.40
2018-05-24T11:42:45.022Z,29.10
2018-05-24T11:45:11.372Z,29.10
2018-05-24T11:47:37.764Z,29.60
2018-05-24T11:50:04.084Z,29.70
2018-05-24T11:52:30.380Z,30.90
2018-05-24T11:54:56.704Z,31.60
2018-05-24T11:57:23.015Z,32.10
2018-05-24T11:59:49.326Z,32.40
2018-05-24T12:02:16.380Z,33.90
2018-05-24T12:04:43.423Z,33.30
2018-05-24T12:07:10.446Z,34.10
2018-05-24T12:09:36.748Z,34.10
2018-05-24T12:12:02.989Z,35.00
2018-05-24T12:14:29.274Z,35.60
2018-05-24T12:16:56.302Z,36.90
2018-05-24T12:19:23.379Z,38.10
2018-05-24T12:21:49.727Z,38.00
2018-05-24T12:24:16.069Z,39.20
2018-05-24T12:26:42.335Z,38.00
2018-05-24T12:29:08.705Z,38.40
2018-05-24T12:31:34.933Z,38.10
2018-05-24T12:34:01.314Z,39.10
2018-05-24T12:36:27.649Z,39.10
2018-05-24T12:38:53.951Z,38.70
2018-05-24T12:41:20.259Z,40.30
2018-05-24T12:43:46.615Z,41.60
2018-05-24T12:46:12.871Z,41.10
2018-05-24T12:48:39.130Z,40.10
2018-05-24T12:51:06.215Z,40.00
2018-05-24T12:53:32.570Z,40.10
2018-05-24T12:55:58.885Z,41.50
2018-05-24T12:58:25.192Z,40.40
2018-05-24T13:00:51.475Z,39.30
2018-05-24T13:03:17.754Z,38.40
2018-05-24T13:05:44.008Z,37.80
2018-05-24T13:08:10.321Z,36.40
2018-05-24T13:10:36.638Z,33.80
2018-05-24T13:13:02.928Z,33.90
2018-05-24T13:15:29.299Z,35.00
2018-05-24T13:17:55.611Z,36.70
2018-05-24T13:20:22.681Z,37.80
2018-05-24T13:22:48.969Z,37.80
2018-05-24T13:25:15.267Z,37.00
2018-05-24T13:27:41.620Z,36.60
2018-05-24T13:30:08.050Z,35.90
2018-05-24T13:32:34.421Z,34.90
2018-05-24T13:35:01.480Z,36.50
2018-05-24T13:37:27.787Z,36.40
2018-05-24T13:39:54.052Z,37.20
2018-05-24T13:42:20.385Z,38.00
2018-05-24T13:44:46.744Z,37.50
2018-05-24T13:47:13.064Z,37.90
2018-05-24T13:49:39.360Z,40.50
2018-05-24T13:52:06.430Z,40.70
2018-05-24T13:54:32.805Z,40.70
2018-05-24T13:56:59.063Z,39.50
2018-05-24T13:59:26.127Z,37.20
2018-05-24T14:01:52.466Z,37.10
2018-05-24T14:04:18.768Z,36.30
2018-05-24T14:06:45.835Z,34.80
2018-05-24T14:09:12.233Z,34.80
2018-05-24T14:11:38.560Z,34.00
2018-05-24T14:14:04.972Z,33.50
2018-05-24T14:16:31.361Z,32.10
2018-05-24T14:18:58.590Z,31.40
2018-05-24T14:21:24.992Z,31.40
2018-05-24T14:23:51.370Z,31.40
2018-05-24T14:26:18.518Z,31.10
2018-05-24T14:28:44.872Z,31.10
2018-05-24T14:31:11.261Z,30.10
2018-05-24T14:33:37.597Z,29.70
2018-05-24T14:36:04.010Z,29.80
2018-05-24T14:38:30.302Z,29.20
2018-05-24T14:40:56.636Z,29.20
2018-05-24T14:43:23.786Z,28.70
2018-05-24T14:45:50.268Z,28.60
2018-05-24T14:48:17.312Z,27.40
2018-05-24T14:50:43.721Z,27.40
2018-05-24T14:53:10.051Z,27.60
2018-05-24T14:55:36.437Z,27.50
2018-05-24T14:58:03.557Z,28.10
2018-05-24T15:00:29.834Z,28.00
2018-05-24T15:02:56.172Z,28.50
2018-05-24T15:05:22.520Z,28.90
2018-05-24T15:07:48.930Z,28.90
2018-05-24T15:10:16.026Z,28.90
2018-05-24T15:12:42.341Z,28.90
2018-05-24T15:15:08.575Z,29.70
2018-05-24T15:17:34.866Z,29.10
2018-05-24T15:20:01.240Z,29.00
2018-05-24T15:22:27.588Z,28.20
2018-05-24T15:24:53.915Z,28.60
2018-05-24T15:27:20.231Z,28.50
2018-05-24T15:29:46.590Z,28.60
2018-05-24T15:32:13.645Z,28.40
2018-05-24T15:34:39.960Z,28.40
2018-05-24T15:37:06.290Z,28.40
2018-05-24T15:39:32.610Z,28.20
2018-05-24T15:41:58.899Z,28.00
2018-05-24T15:44:25.925Z,28.00
2018-05-24T15:46:52.991Z,28.10
2018-05-24T15:49:19.335Z,28.00
2018-05-24T15:51:45.647Z,27.90
2018-05-24T15:54:12.724Z,27.70
2018-05-24T15:56:39.007Z,27.70
2018-05-24T15:59:05.302Z,27.70
2018-05-24T16:01:31.566Z,27.40
2018-05-24T16:03:57.824Z,27.50
2018-05-24T16:06:24.161Z,27.30
2018-05-24T16:08:50.424Z,27.00
2018-05-24T16:11:16.682Z,26.80
2018-05-24T16:13:42.964Z,26.80
2018-05-24T16:16:09.301Z,26.80
2018-05-24T16:18:35.576Z,26.40
2018-05-24T16:21:01.880Z,26.60
2018-05-24T16:23:28.229Z,26.60
2018-05-24T16:25:56.103Z,26.00
2018-05-24T16:28:22.438Z,26.10
2018-05-24T16:30:48.834Z,25.90
2018-05-24T16:33:15.163Z,26.10
2018-05-24T16:35:41.445Z,25.60
2018-05-24T16:38:07.777Z,25.70
2018-05-24T16:40:34.852Z,25.60
2018-05-24T16:43:01.111Z,25.60
2018-05-24T16:45:27.428Z,25.40
2018-05-24T16:47:53.719Z,25.40
2018-05-24T16:50:20.791Z,25.10
2018-05-24T16:52:47.089Z,25.00
2018-05-24T16:55:14.430Z,24.90
2018-05-24T16:57:40.741Z,24.90
2018-05-24T17:00:07.071Z,24.80
2018-05-24T17:02:33.419Z,24.80
2018-05-24T17:04:59.729Z,24.70
2018-05-24T17:07:26.020Z,24.50
2018-05-24T17:09:53.051Z,24.20
2018-05-24T17:12:19.407Z,24.20
2018-05-24T17:14:45.705Z,24.20
2018-05-24T17:17:12.001Z,24.20
2018-05-24T17:19:38.302Z,24.00
2018-05-24T17:22:04.617Z,23.90
2018-05-24T17:24:31.646Z,23.90
2018-05-24T17:26:57.914Z,23.90
2018-05-24T17:29:24.216Z,23.90
2018-05-24T17:31:51.274Z,23.80
2018-05-24T17:34:18.352Z,23.90
2018-05-24T17:36:51.579Z,23.80
2018-05-24T17:39:17.911Z,23.80
2018-05-24T17:41:44.222Z,23.70
2018-05-24T17:44:10.532Z,23.70
2018-05-24T17:46:36.871Z,23.70
2018-05-24T17:49:03.169Z,23.60
2018-05-24T17:51:30.267Z,23.50
2018-05-24T17:53:56.551Z,23.40
2018-05-24T17:56:23.650Z,23.50
2018-05-24T17:58:50.012Z,23.40
2018-05-24T18:01:17.092Z,23.30
2018-05-24T18:03:43.380Z,23.30
2018-05-24T18:06:09.688Z,23.20
2018-05-24T18:08:36.072Z,23.20
2018-05-24T18:11:03.101Z,23.00
2018-05-24T18:13:30.882Z,22.90
2018-05-24T18:15:57.972Z,22.90
2018-05-24T18:18:31.138Z,22.90
2018-05-24T18:20:57.488Z,22.90
2018-05-24T18:23:23.779Z,22.80
2018-05-24T18:25:50.918Z,22.80
2018-05-24T18:28:17.240Z,22.70
2018-05-24T18:30:43.558Z,22.70
2018-05-24T18:33:09.836Z,22.70
2018-05-24T18:35:36.902Z,22.40
2018-05-24T18:38:03.284Z,22.40
2018-05-24T18:40:29.591Z,22.40
2018-05-24T18:42:56.029Z,22.30
2018-05-24T18:45:23.043Z,22.20
2018-05-24T18:47:49.319Z,22.20
2018-05-24T18:50:15.646Z,22.20
2018-05-24T18:52:41.988Z,22.10
2018-05-24T18:55:08.356Z,22.00
2018-05-24T18:57:34.713Z,21.90
2018-05-24T19:00:01.103Z,21.90
2018-05-24T19:02:28.924Z,21.70
2018-05-24T19:04:55.373Z,21.70
2018-05-24T19:07:21.712Z,21.70
2018-05-24T19:09:48.159Z,21.60
2018-05-24T19:12:14.490Z,21.60
2018-05-24T19:14:40.777Z,21.50
2018-05-24T19:17:07.178Z,21.60
2018-05-24T19:19:33.479Z,21.50
2018-05-24T19:21:59.785Z,21.60
2018-05-24T19:24:26.133Z,21.60
2018-05-24T19:26:52.548Z,21.60
2018-05-24T19:29:19.614Z,21.60
2018-05-24T19:31:46.030Z,21.60
2018-05-24T19:34:12.317Z,21.60
2018-05-24T19:36:38.694Z,21.60
2018-05-24T19:39:04.990Z,21.50
2018-05-24T19:41:31.319Z,21.50
2018-05-24T19:43:57.737Z,21.50
2018-05-24T19:46:24.061Z,21.40
2018-05-24T19:48:51.104Z,21.30
2018-05-24T19:51:17.576Z,21.30
2018-05-24T19:53:44.055Z,21.30
2018-05-24T19:56:10.336Z,21.30
2018-05-24T19:58:36.599Z,21.20
2018-05-24T20:01:02.865Z,21.10
2018-05-24T20:03:29.179Z,21.20
2018-05-24T20:05:55.576Z,21.10
2018-05-24T20:08:22.008Z,21.10
2018-05-24T20:10:48.373Z,21.10
2018-05-24T20:13:15.512Z,20.90
2018-05-24T20:15:41.861Z,20.90
2018-05-24T20:18:08.291Z,20.90
2018-05-24T20:20:34.636Z,20.70
2018-05-24T20:23:01.024Z,20.70
2018-05-24T20:25:27.343Z,20.60
2018-05-24T20:27:53.707Z,20.50
2018-05-24T20:30:20.079Z,20.50
2018-05-24T20:32:47.193Z,20.40
2018-05-24T20:35:13.525Z,20.40
2018-05-24T20:37:39.946Z,20.30
2018-05-24T20:40:06.302Z,20.20
2018-05-24T20:42:33.449Z,20.10
2018-05-24T20:44:59.839Z,20.10
2018-05-24T20:47:26.231Z,20.00
2018-05-24T20:49:53.436Z,20.00
2018-05-24T20:52:19.798Z,20.00
2018-05-24T20:54:46.139Z,19.90
2018-05-24T20:57:12.464Z,19.90
2018-05-24T20:59:38.810Z,19.80
2018-05-24T21:02:05.892Z,19.70
2018-05-24T21:04:32.208Z,19.60
2018-05-24T21:06:58.565Z,19.60
2018-05-24T21:09:24.935Z,19.50
2018-05-24T21:11:51.278Z,19.50
2018-05-24T21:14:18.442Z,19.50
2018-05-24T21:16:45.509Z,19.50
2018-05-24T21:19:11.848Z,19.50
2018-05-24T21:21:38.191Z,19.50
2018-05-24T21:24:04.545Z,19.50
2018-05-24T21:26:30.898Z,19.40
2018-05-24T21:28:57.208Z,19.50
2018-05-24T21:31:23.587Z,19.50
2018-05-24T21:33:50.678Z,19.40
2018-05-24T21:36:16.990Z,19.40
2018-05-24T21:38:43.323Z,19.40
2018-05-24T21:41:09.667Z,19.30
2018-05-24T21:43:36.052Z,19.30
2018-05-24T21:46:03.107Z,19.20
2018-05-24T21:48:30.217Z,19.20
2018-05-24T21:50:56.603Z,19.20
2018-05-24T21:53:22.938Z,19.10
2018-05-24T21:55:49.295Z,19.10
2018-05-24T21:58:15.648Z,19.10
2018-05-24T22:00:48.159Z,19.10
2018-05-24T22:03:15.278Z,19.10
2018-05-24T22:05:41.682Z,19.10
2018-05-24T22:08:08.072Z,19.10
2018-05-24T22:10:35.162Z,19.20
2018-05-24T22:13:01.479Z,19.10
2018-05-24T22:15:27.824Z,19.20
2018-05-24T22:17:54.146Z,19.20
2018-05-24T22:20:20.519Z,19.20
2018-05-24T22:22:46.874Z,19.20
2018-05-24T22:25:14.010Z,19.30
2018-05-24T22:27:40.330Z,19.20
2018-05-24T22:30:06.732Z,19.30
2018-05-24T22:32:33.102Z,19.30
2018-05-24T22:34:59.467Z,19.20
2018-05-24T22:37:26.574Z,19.20
2018-05-24T22:39:52.967Z,19.10
2018-05-24T22:42:19.318Z,19.10
2018-05-24T22:44:45.690Z,19.00
2018-05-24T22:47:12.781Z,18.80
2018-05-24T22:49:39.139Z,18.80
2018-05-24T22:52:05.529Z,18.80
2018-05-24T22:54:31.876Z,18.70
2018-05-24T22:56:58.218Z,18.60
2018-05-24T22:59:24.615Z,18.50
2018-05-24T23:01:51.763Z,18.40
2018-05-24T23:04:18.868Z,18.40
2018-05-24T23:06:45.231Z,18.30
2018-05-24T23:09:11.631Z,18.30
2018-05-24T23:11:37.953Z,18.20
2018-05-24T23:14:05.227Z,18.10
2018-05-24T23:16:31.565Z,18.00
2018-05-24T23:18:57.911Z,17.90
2018-05-24T23:21:24.244Z,17.80
2018-05-24T23:23:50.583Z,17.70
2018-05-24T23:26:17.666Z,17.70
2018-05-24T23:28:44.039Z,17.60
2018-05-24T23:31:10.414Z,17.60
2018-05-24T23:33:36.743Z,17.60
2018-05-24T23:36:03.082Z,17.50
2018-05-24T23:38:29.442Z,17.50
2018-05-24T23:40:55.826Z,17.50
2018-05-24T23:43:22.916Z,17.50
2018-05-24T23:45:49.302Z,17.50
2018-05-24T23:48:15.624Z,17.60
2018-05-24T23:50:42.005Z,17.70
2018-05-24T23:53:08.378Z,17.70
2018-05-24T23:55:34.796Z,17.80
2018-05-24T23:58:01.852Z,17.80
